sensor_id;sensor_type;location;lat;lon;timestamp;P1;durP1;ratioP1;P2;durP2;ratioP2
21519;SDS011;10921;53.614;9.882;2023-08-06T00:00:28;22.15;;;20.45;;
21519;SDS011;10921;53.614;9.882;2023-08-06T00:02:55;22.33;;;20.63;;
21519;SDS011;10921;53.614;9.882;2023-08-06T00:05:21;20.85;;;19.38;;
21519;SDS011;10921;53.614;9.882;2023-08-06T00:07:48;22.38;;;20.77;;
21519;SDS011;10921;53.614;9.882;2023-08-06T00:10:16;21.88;;;20.38;;
21519;SDS011;10921;53.614;9.882;2023-08-06T00:12:43;23.02;;;21.42;;
21519;SDS011;10921;53.614;9.882;2023-08-06T00:15:10;24.42;;;22.60;;
21519;SDS011;10921;53.614;9.882;2023-08-06T00:17:37;23.60;;;22.00;;
21519;SDS011;10921;53.614;9.882;2023-08-06T00:20:04;23.63;;;22.00;;
21519;SDS011;10921;53.614;9.882;2023-08-06T00:22:36;23.95;;;22.35;;
21519;SDS011;10921;53.614;9.882;2023-08-06T00:25:04;25.40;;;23.55;;
21519;SDS011;10921;53.614;9.882;2023-08-06T00:27:31;24.55;;;22.65;;
21519;SDS011;10921;53.614;9.882;2023-08-06T00:30:01;24.60;;;22.90;;
21519;SDS011;10921;53.614;9.882;2023-08-06T00:32:28;25.13;;;23.15;;
21519;SDS011;10921;53.614;9.882;2023-08-06T00:34:55;24.52;;;22.65;;
21519;SDS011;10921;53.614;9.882;2023-08-06T00:37:22;24.25;;;22.55;;
21519;SDS011;10921;53.614;9.882;2023-08-06T00:39:49;24.90;;;23.13;;
21519;SDS011;10921;53.614;9.882;2023-08-06T00:42:15;24.92;;;23.20;;
21519;SDS011;10921;53.614;9.882;2023-08-06T00:44:46;24.77;;;22.95;;
21519;SDS011;10921;53.614;9.882;2023-08-06T00:47:13;25.10;;;23.40;;
21519;SDS011;10921;53.614;9.882;2023-08-06T00:49:40;26.45;;;24.45;;
21519;SDS011;10921;53.614;9.882;2023-08-06T00:52:06;27.55;;;25.17;;
21519;SDS011;10921;53.614;9.882;2023-08-06T00:54:34;28.17;;;26.00;;
21519;SDS011;10921;53.614;9.882;2023-08-06T00:57:02;28.85;;;26.63;;
21519;SDS011;10921;53.614;9.882;2023-08-06T00:59:29;28.70;;;26.50;;
21519;SDS011;10921;53.614;9.882;2023-08-06T01:01:58;29.40;;;27.20;;
21519;SDS011;10921;53.614;9.882;2023-08-06T01:04:24;29.73;;;27.58;;
21519;SDS011;10921;53.614;9.882;2023-08-06T01:12:45;29.27;;;26.98;;
21519;SDS011;10921;53.614;9.882;2023-08-06T01:15:19;28.85;;;26.75;;
21519;SDS011;10921;53.614;9.882;2023-08-06T01:17:50;29.77;;;27.48;;
21519;SDS011;10921;53.614;9.882;2023-08-06T01:20:18;29.35;;;27.15;;
21519;SDS011;10921;53.614;9.882;2023-08-06T01:22:45;29.95;;;27.30;;
21519;SDS011;10921;53.614;9.882;2023-08-06T01:25:11;29.17;;;26.92;;
21519;SDS011;10921;53.614;9.882;2023-08-06T01:27:49;28.88;;;26.67;;
21519;SDS011;10921;53.614;9.882;2023-08-06T01:30:20;28.98;;;26.83;;
21519;SDS011;10921;53.614;9.882;2023-08-06T01:33:00;29.95;;;27.40;;
21519;SDS011;10921;53.614;9.882;2023-08-06T01:35:30;29.00;;;26.48;;
21519;SDS011;10921;53.614;9.882;2023-08-06T01:37:59;27.58;;;25.48;;
21519;SDS011;10921;53.614;9.882;2023-08-06T01:40:27;28.27;;;26.05;;
21519;SDS011;10921;53.614;9.882;2023-08-06T01:42:54;28.75;;;26.45;;
21519;SDS011;10921;53.614;9.882;2023-08-06T01:45:21;28.50;;;26.30;;
21519;SDS011;10921;53.614;9.882;2023-08-06T01:47:48;28.17;;;26.08;;
21519;SDS011;10921;53.614;9.882;2023-08-06T01:50:14;28.15;;;26.17;;
21519;SDS011;10921;53.614;9.882;2023-08-06T01:52:41;28.45;;;26.25;;
21519;SDS011;10921;53.614;9.882;2023-08-06T01:55:07;29.00;;;26.70;;
21519;SDS011;10921;53.614;9.882;2023-08-06T01:57:34;28.40;;;26.30;;
21519;SDS011;10921;53.614;9.882;2023-08-06T02:00:00;28.60;;;26.50;;
21519;SDS011;10921;53.614;9.882;2023-08-06T02:02:27;28.10;;;25.90;;
21519;SDS011;10921;53.614;9.882;2023-08-06T02:04:53;29.67;;;27.23;;
21519;SDS011;10921;53.614;9.882;2023-08-06T02:07:20;28.55;;;26.55;;
21519;SDS011;10921;53.614;9.882;2023-08-06T02:09:46;29.80;;;27.15;;
21519;SDS011;10921;53.614;9.882;2023-08-06T02:12:13;29.08;;;26.98;;
21519;SDS011;10921;53.614;9.882;2023-08-06T02:14:39;28.92;;;26.80;;
21519;SDS011;10921;53.614;9.882;2023-08-06T02:17:06;29.33;;;27.13;;
21519;SDS011;10921;53.614;9.882;2023-08-06T02:19:32;29.90;;;27.60;;
21519;SDS011;10921;53.614;9.882;2023-08-06T02:21:59;30.27;;;27.90;;
21519;SDS011;10921;53.614;9.882;2023-08-06T02:24:25;30.48;;;27.75;;
21519;SDS011;10921;53.614;9.882;2023-08-06T02:26:51;28.90;;;26.80;;
21519;SDS011;10921;53.614;9.882;2023-08-06T02:29:21;28.67;;;26.67;;
21519;SDS011;10921;53.614;9.882;2023-08-06T02:31:48;30.08;;;27.73;;
21519;SDS011;10921;53.614;9.882;2023-08-06T02:34:14;29.10;;;26.90;;
21519;SDS011;10921;53.614;9.882;2023-08-06T02:36:41;29.98;;;27.50;;
21519;SDS011;10921;53.614;9.882;2023-08-06T02:39:08;29.33;;;27.02;;
21519;SDS011;10921;53.614;9.882;2023-08-06T02:41:35;29.20;;;27.10;;
21519;SDS011;10921;53.614;9.882;2023-08-06T02:44:01;30.55;;;28.35;;
21519;SDS011;10921;53.614;9.882;2023-08-06T02:46:28;28.63;;;26.52;;
21519;SDS011;10921;53.614;9.882;2023-08-06T02:48:55;29.65;;;27.45;;
21519;SDS011;10921;53.614;9.882;2023-08-06T02:51:22;30.65;;;27.88;;
21519;SDS011;10921;53.614;9.882;2023-08-06T02:53:48;30.55;;;28.25;;
21519;SDS011;10921;53.614;9.882;2023-08-06T02:56:15;31.27;;;28.55;;
21519;SDS011;10921;53.614;9.882;2023-08-06T02:58:42;30.50;;;28.15;;
21519;SDS011;10921;53.614;9.882;2023-08-06T03:01:08;30.38;;;27.95;;
21519;SDS011;10921;53.614;9.882;2023-08-06T03:03:35;31.30;;;28.83;;
21519;SDS011;10921;53.614;9.882;2023-08-06T03:06:01;29.92;;;27.73;;
21519;SDS011;10921;53.614;9.882;2023-08-06T03:08:28;30.13;;;27.67;;
21519;SDS011;10921;53.614;9.882;2023-08-06T03:10:55;29.88;;;27.77;;
21519;SDS011;10921;53.614;9.882;2023-08-06T03:13:21;29.83;;;27.63;;
21519;SDS011;10921;53.614;9.882;2023-08-06T03:15:51;30.50;;;28.05;;
21519;SDS011;10921;53.614;9.882;2023-08-06T03:18:21;29.60;;;27.38;;
21519;SDS011;10921;53.614;9.882;2023-08-06T03:20:49;30.15;;;27.70;;
21519;SDS011;10921;53.614;9.882;2023-08-06T03:23:15;30.30;;;27.88;;
21519;SDS011;10921;53.614;9.882;2023-08-06T03:25:42;30.05;;;27.70;;
21519;SDS011;10921;53.614;9.882;2023-08-06T03:28:08;31.13;;;28.73;;
21519;SDS011;10921;53.614;9.882;2023-08-06T03:30:35;30.92;;;28.42;;
21519;SDS011;10921;53.614;9.882;2023-08-06T03:33:05;30.92;;;28.63;;
21519;SDS011;10921;53.614;9.882;2023-08-06T03:35:31;32.00;;;29.30;;
21519;SDS011;10921;53.614;9.882;2023-08-06T03:37:58;31.27;;;28.67;;
21519;SDS011;10921;53.614;9.882;2023-08-06T03:40:24;30.88;;;28.52;;
21519;SDS011;10921;53.614;9.882;2023-08-06T03:42:51;32.22;;;29.52;;
21519;SDS011;10921;53.614;9.882;2023-08-06T03:45:18;31.75;;;29.15;;
21519;SDS011;10921;53.614;9.882;2023-08-06T03:47:44;30.38;;;27.98;;
21519;SDS011;10921;53.614;9.882;2023-08-06T03:50:11;30.38;;;27.98;;
21519;SDS011;10921;53.614;9.882;2023-08-06T03:52:37;29.67;;;27.42;;
21519;SDS011;10921;53.614;9.882;2023-08-06T03:55:04;29.27;;;27.08;;
21519;SDS011;10921;53.614;9.882;2023-08-06T03:57:30;31.25;;;28.67;;
21519;SDS011;10921;53.614;9.882;2023-08-06T03:59:57;30.42;;;27.73;;
21519;SDS011;10921;53.614;9.882;2023-08-06T04:02:24;31.75;;;29.15;;
21519;SDS011;10921;53.614;9.882;2023-08-06T04:04:50;31.13;;;28.52;;
21519;SDS011;10921;53.614;9.882;2023-08-06T04:07:19;31.08;;;28.58;;
21519;SDS011;10921;53.614;9.882;2023-08-06T04:09:57;31.63;;;28.67;;
21519;SDS011;10921;53.614;9.882;2023-08-06T04:12:25;31.10;;;28.50;;
21519;SDS011;10921;53.614;9.882;2023-08-06T04:14:52;31.60;;;29.00;;
21519;SDS011;10921;53.614;9.882;2023-08-06T04:17:20;31.95;;;29.25;;
21519;SDS011;10921;53.614;9.882;2023-08-06T04:19:48;31.05;;;28.50;;
21519;SDS011;10921;53.614;9.882;2023-08-06T04:22:16;31.48;;;28.85;;
21519;SDS011;10921;53.614;9.882;2023-08-06T04:24:43;31.17;;;28.65;;
21519;SDS011;10921;53.614;9.882;2023-08-06T04:27:10;30.73;;;28.33;;
21519;SDS011;10921;53.614;9.882;2023-08-06T04:29:38;30.65;;;28.23;;
21519;SDS011;10921;53.614;9.882;2023-08-06T04:32:05;30.38;;;27.92;;
21519;SDS011;10921;53.614;9.882;2023-08-06T04:34:35;30.35;;;28.05;;
21519;SDS011;10921;53.614;9.882;2023-08-06T04:37:03;31.05;;;28.40;;
21519;SDS011;10921;53.614;9.882;2023-08-06T04:39:30;30.10;;;27.63;;
21519;SDS011;10921;53.614;9.882;2023-08-06T04:41:57;30.83;;;28.30;;
21519;SDS011;10921;53.614;9.882;2023-08-06T04:44:23;30.73;;;28.13;;
21519;SDS011;10921;53.614;9.882;2023-08-06T04:46:50;30.00;;;27.60;;
21519;SDS011;10921;53.614;9.882;2023-08-06T04:49:18;31.33;;;28.55;;
21519;SDS011;10921;53.614;9.882;2023-08-06T04:51:46;31.42;;;28.70;;
21519;SDS011;10921;53.614;9.882;2023-08-06T04:54:12;30.73;;;28.33;;
21519;SDS011;10921;53.614;9.882;2023-08-06T04:56:39;31.58;;;28.98;;
21519;SDS011;10921;53.614;9.882;2023-08-06T04:59:06;30.80;;;28.05;;
21519;SDS011;10921;53.614;9.882;2023-08-06T05:01:32;29.98;;;27.27;;
21519;SDS011;10921;53.614;9.882;2023-08-06T05:03:59;29.33;;;27.13;;
21519;SDS011;10921;53.614;9.882;2023-08-06T05:06:25;30.45;;;27.73;;
21519;SDS011;10921;53.614;9.882;2023-08-06T05:08:52;30.75;;;27.60;;
21519;SDS011;10921;53.614;9.882;2023-08-06T05:11:19;30.40;;;27.75;;
21519;SDS011;10921;53.614;9.882;2023-08-06T05:13:45;30.63;;;27.90;;
21519;SDS011;10921;53.614;9.882;2023-08-06T05:16:12;30.08;;;27.30;;
21519;SDS011;10921;53.614;9.882;2023-08-06T05:18:38;30.75;;;27.95;;
21519;SDS011;10921;53.614;9.882;2023-08-06T05:21:05;30.45;;;28.05;;
21519;SDS011;10921;53.614;9.882;2023-08-06T05:23:31;31.67;;;28.88;;
21519;SDS011;10921;53.614;9.882;2023-08-06T05:25:58;29.92;;;27.23;;
21519;SDS011;10921;53.614;9.882;2023-08-06T05:28:25;31.10;;;28.02;;
21519;SDS011;10921;53.614;9.882;2023-08-06T05:30:51;30.77;;;28.15;;
21519;SDS011;10921;53.614;9.882;2023-08-06T05:33:18;31.13;;;28.30;;
21519;SDS011;10921;53.614;9.882;2023-08-06T05:35:45;30.77;;;28.15;;
21519;SDS011;10921;53.614;9.882;2023-08-06T05:38:11;30.45;;;27.58;;
21519;SDS011;10921;53.614;9.882;2023-08-06T05:40:38;30.00;;;27.25;;
21519;SDS011;10921;53.614;9.882;2023-08-06T05:43:04;28.88;;;26.58;;
21519;SDS011;10921;53.614;9.882;2023-08-06T05:45:31;30.00;;;27.13;;
21519;SDS011;10921;53.614;9.882;2023-08-06T05:47:57;30.60;;;27.80;;
21519;SDS011;10921;53.614;9.882;2023-08-06T05:50:24;30.30;;;27.75;;
21519;SDS011;10921;53.614;9.882;2023-08-06T05:52:51;30.88;;;28.10;;
21519;SDS011;10921;53.614;9.882;2023-08-06T05:55:18;31.30;;;28.30;;
21519;SDS011;10921;53.614;9.882;2023-08-06T05:57:46;31.40;;;28.58;;
21519;SDS011;10921;53.614;9.882;2023-08-06T06:00:13;31.35;;;28.75;;
21519;SDS011;10921;53.614;9.882;2023-08-06T06:02:39;31.10;;;28.52;;
21519;SDS011;10921;53.614;9.882;2023-08-06T06:05:07;31.40;;;28.75;;
21519;SDS011;10921;53.614;9.882;2023-08-06T06:07:33;29.73;;;27.35;;
21519;SDS011;10921;53.614;9.882;2023-08-06T06:10:00;30.90;;;28.10;;
21519;SDS011;10921;53.614;9.882;2023-08-06T06:12:27;30.55;;;27.70;;
21519;SDS011;10921;53.614;9.882;2023-08-06T06:14:53;29.70;;;27.13;;
21519;SDS011;10921;53.614;9.882;2023-08-06T06:17:20;30.48;;;27.52;;
21519;SDS011;10921;53.614;9.882;2023-08-06T06:19:46;31.10;;;28.30;;
21519;SDS011;10921;53.614;9.882;2023-08-06T06:22:13;31.33;;;28.35;;
21519;SDS011;10921;53.614;9.882;2023-08-06T06:24:40;31.33;;;28.65;;
21519;SDS011;10921;53.614;9.882;2023-08-06T06:27:06;30.10;;;27.33;;
21519;SDS011;10921;53.614;9.882;2023-08-06T06:29:33;30.88;;;28.05;;
21519;SDS011;10921;53.614;9.882;2023-08-06T06:31:59;30.45;;;27.63;;
21519;SDS011;10921;53.614;9.882;2023-08-06T06:34:26;30.10;;;27.05;;
21519;SDS011;10921;53.614;9.882;2023-08-06T06:36:52;29.58;;;26.92;;
21519;SDS011;10921;53.614;9.882;2023-08-06T06:39:20;29.42;;;26.73;;
21519;SDS011;10921;53.614;9.882;2023-08-06T06:41:47;29.13;;;26.63;;
21519;SDS011;10921;53.614;9.882;2023-08-06T06:44:14;29.63;;;27.00;;
21519;SDS011;10921;53.614;9.882;2023-08-06T06:46:41;29.77;;;27.15;;
21519;SDS011;10921;53.614;9.882;2023-08-06T06:49:07;29.55;;;26.83;;
21519;SDS011;10921;53.614;9.882;2023-08-06T06:51:34;29.20;;;26.65;;
21519;SDS011;10921;53.614;9.882;2023-08-06T06:54:00;29.90;;;26.80;;
21519;SDS011;10921;53.614;9.882;2023-08-06T06:56:27;28.60;;;26.10;;
21519;SDS011;10921;53.614;9.882;2023-08-06T06:58:54;28.95;;;26.15;;
21519;SDS011;10921;53.614;9.882;2023-08-06T07:01:20;28.65;;;25.48;;
21519;SDS011;10921;53.614;9.882;2023-08-06T07:03:47;29.13;;;26.33;;
21519;SDS011;10921;53.614;9.882;2023-08-06T07:06:13;29.20;;;26.02;;
21519;SDS011;10921;53.614;9.882;2023-08-06T07:08:41;29.52;;;25.02;;
21519;SDS011;10921;53.614;9.882;2023-08-06T07:11:08;27.95;;;25.15;;
21519;SDS011;10921;53.614;9.882;2023-08-06T07:13:34;28.58;;;25.35;;
21519;SDS011;10921;53.614;9.882;2023-08-06T07:16:01;27.92;;;25.23;;
21519;SDS011;10921;53.614;9.882;2023-08-06T07:18:28;27.08;;;24.80;;
21519;SDS011;10921;53.614;9.882;2023-08-06T07:20:55;27.33;;;24.75;;
21519;SDS011;10921;53.614;9.882;2023-08-06T07:23:22;26.92;;;24.40;;
21519;SDS011;10921;53.614;9.882;2023-08-06T07:25:50;27.27;;;24.45;;
21519;SDS011;10921;53.614;9.882;2023-08-06T07:28:17;26.70;;;24.20;;
21519;SDS011;10921;53.614;9.882;2023-08-06T07:30:44;28.13;;;25.15;;
21519;SDS011;10921;53.614;9.882;2023-08-06T07:33:12;26.67;;;24.13;;
21519;SDS011;10921;53.614;9.882;2023-08-06T07:35:38;27.13;;;24.42;;
21519;SDS011;10921;53.614;9.882;2023-08-06T07:38:05;31.15;;;24.23;;
21519;SDS011;10921;53.614;9.882;2023-08-06T07:40:32;24.30;;;21.80;;
21519;SDS011;10921;53.614;9.882;2023-08-06T07:43:01;23.17;;;20.87;;
21519;SDS011;10921;53.614;9.882;2023-08-06T07:45:28;28.70;;;20.48;;
21519;SDS011;10921;53.614;9.882;2023-08-06T07:47:59;22.30;;;19.75;;
21519;SDS011;10921;53.614;9.882;2023-08-06T07:50:25;21.85;;;19.52;;
21519;SDS011;10921;53.614;9.882;2023-08-06T07:52:52;22.48;;;19.50;;
21519;SDS011;10921;53.614;9.882;2023-08-06T07:55:18;26.20;;;18.92;;
21519;SDS011;10921;53.614;9.882;2023-08-06T07:57:45;22.45;;;17.58;;
21519;SDS011;10921;53.614;9.882;2023-08-06T08:00:11;19.48;;;17.45;;
21519;SDS011;10921;53.614;9.882;2023-08-06T08:02:38;20.27;;;16.30;;
21519;SDS011;10921;53.614;9.882;2023-08-06T08:05:04;19.10;;;17.00;;
21519;SDS011;10921;53.614;9.882;2023-08-06T08:07:33;20.92;;;16.27;;
21519;SDS011;10921;53.614;9.882;2023-08-06T08:10:00;18.20;;;16.25;;
21519;SDS011;10921;53.614;9.882;2023-08-06T08:12:26;21.92;;;16.63;;
21519;SDS011;10921;53.614;9.882;2023-08-06T08:14:53;17.75;;;16.00;;
21519;SDS011;10921;53.614;9.882;2023-08-06T08:17:20;18.08;;;15.90;;
21519;SDS011;10921;53.614;9.882;2023-08-06T08:19:46;17.05;;;15.35;;
21519;SDS011;10921;53.614;9.882;2023-08-06T08:22:13;19.52;;;15.63;;
21519;SDS011;10921;53.614;9.882;2023-08-06T08:24:39;17.58;;;15.48;;
21519;SDS011;10921;53.614;9.882;2023-08-06T08:27:06;18.33;;;15.05;;
21519;SDS011;10921;53.614;9.882;2023-08-06T08:29:32;16.95;;;15.00;;
21519;SDS011;10921;53.614;9.882;2023-08-06T08:31:59;17.75;;;15.85;;
21519;SDS011;10921;53.614;9.882;2023-08-06T08:34:25;17.33;;;15.60;;
21519;SDS011;10921;53.614;9.882;2023-08-06T08:36:52;21.92;;;15.93;;
21519;SDS011;10921;53.614;9.882;2023-08-06T08:39:19;16.23;;;14.73;;
21519;SDS011;10921;53.614;9.882;2023-08-06T08:41:45;19.63;;;14.85;;
21519;SDS011;10921;53.614;9.882;2023-08-06T08:44:11;16.58;;;14.88;;
21519;SDS011;10921;53.614;9.882;2023-08-06T08:46:40;16.10;;;14.52;;
21519;SDS011;10921;53.614;9.882;2023-08-06T08:49:09;19.83;;;15.30;;
21519;SDS011;10921;53.614;9.882;2023-08-06T08:51:37;16.35;;;14.52;;
21519;SDS011;10921;53.614;9.882;2023-08-06T08:54:07;15.93;;;14.25;;
21519;SDS011;10921;53.614;9.882;2023-08-06T08:56:35;17.08;;;14.10;;
21519;SDS011;10921;53.614;9.882;2023-08-06T08:59:01;15.73;;;13.98;;
21519;SDS011;10921;53.614;9.882;2023-08-06T09:01:28;16.92;;;14.00;;
21519;SDS011;10921;53.614;9.882;2023-08-06T09:03:55;15.63;;;13.88;;
21519;SDS011;10921;53.614;9.882;2023-08-06T09:06:23;19.80;;;14.90;;
21519;SDS011;10921;53.614;9.882;2023-08-06T09:09:02;17.23;;;14.15;;
21519;SDS011;10921;53.614;9.882;2023-08-06T09:11:35;16.33;;;14.50;;
21519;SDS011;10921;53.614;9.882;2023-08-06T09:14:07;16.40;;;14.70;;
21519;SDS011;10921;53.614;9.882;2023-08-06T09:16:35;15.57;;;14.07;;
21519;SDS011;10921;53.614;9.882;2023-08-06T09:19:08;17.60;;;14.43;;
21519;SDS011;10921;53.614;9.882;2023-08-06T09:21:39;19.13;;;14.65;;
21519;SDS011;10921;53.614;9.882;2023-08-06T09:24:12;16.50;;;13.73;;
21519;SDS011;10921;53.614;9.882;2023-08-06T09:26:39;16.58;;;14.10;;
21519;SDS011;10921;53.614;9.882;2023-08-06T09:32:46;15.90;;;14.20;;
21519;SDS011;10921;53.614;9.882;2023-08-06T09:35:17;15.85;;;14.40;;
21519;SDS011;10921;53.614;9.882;2023-08-06T09:37:44;15.35;;;13.85;;
21519;SDS011;10921;53.614;9.882;2023-08-06T09:40:30;16.75;;;15.05;;
21519;SDS011;10921;53.614;9.882;2023-08-06T09:42:58;20.88;;;14.85;;
21519;SDS011;10921;53.614;9.882;2023-08-06T09:45:33;14.95;;;13.45;;
21519;SDS011;10921;53.614;9.882;2023-08-06T09:48:07;15.90;;;14.30;;
21519;SDS011;10921;53.614;9.882;2023-08-06T09:50:36;16.48;;;13.68;;
21519;SDS011;10921;53.614;9.882;2023-08-06T09:53:05;22.90;;;15.18;;
21519;SDS011;10921;53.614;9.882;2023-08-06T09:55:33;17.77;;;14.63;;
21519;SDS011;10921;53.614;9.882;2023-08-06T09:58:00;15.88;;;14.38;;
21519;SDS011;10921;53.614;9.882;2023-08-06T10:00:27;17.92;;;14.15;;
21519;SDS011;10921;53.614;9.882;2023-08-06T10:02:55;17.00;;;14.18;;
21519;SDS011;10921;53.614;9.882;2023-08-06T10:05:27;14.82;;;13.43;;
21519;SDS011;10921;53.614;9.882;2023-08-06T10:07:53;15.55;;;13.45;;
21519;SDS011;10921;53.614;9.882;2023-08-06T10:10:22;16.58;;;14.98;;
21519;SDS011;10921;53.614;9.882;2023-08-06T10:12:50;19.13;;;16.25;;
21519;SDS011;10921;53.614;9.882;2023-08-06T10:15:22;17.77;;;15.98;;
21519;SDS011;10921;53.614;9.882;2023-08-06T10:17:53;16.08;;;14.48;;
21519;SDS011;10921;53.614;9.882;2023-08-06T10:20:22;18.15;;;16.33;;
21519;SDS011;10921;53.614;9.882;2023-08-06T10:23:10;17.98;;;16.08;;
21519;SDS011;10921;53.614;9.882;2023-08-06T10:25:39;20.20;;;17.10;;
21519;SDS011;10921;53.614;9.882;2023-08-06T10:28:09;21.42;;;17.00;;
21519;SDS011;10921;53.614;9.882;2023-08-06T10:30:45;18.38;;;16.50;;
21519;SDS011;10921;53.614;9.882;2023-08-06T10:33:13;18.83;;;17.02;;
21519;SDS011;10921;53.614;9.882;2023-08-06T10:35:44;17.73;;;15.98;;
21519;SDS011;10921;53.614;9.882;2023-08-06T10:38:19;18.40;;;16.60;;
21519;SDS011;10921;53.614;9.882;2023-08-06T10:40:49;21.50;;;17.05;;
21519;SDS011;10921;53.614;9.882;2023-08-06T10:43:27;20.52;;;17.30;;
21519;SDS011;10921;53.614;9.882;2023-08-06T10:45:54;19.10;;;17.30;;
21519;SDS011;10921;53.614;9.882;2023-08-06T10:48:40;19.52;;;16.42;;
21519;SDS011;10921;53.614;9.882;2023-08-06T10:51:09;17.40;;;15.65;;
21519;SDS011;10921;53.614;9.882;2023-08-06T10:53:37;18.42;;;16.50;;
21519;SDS011;10921;53.614;9.882;2023-08-06T10:56:14;17.08;;;15.35;;
21519;SDS011;10921;53.614;9.882;2023-08-06T10:58:42;17.40;;;15.80;;
21519;SDS011;10921;53.614;9.882;2023-08-06T11:01:12;16.80;;;15.10;;
21519;SDS011;10921;53.614;9.882;2023-08-06T11:03:40;16.77;;;15.27;;
21519;SDS011;10921;53.614;9.882;2023-08-06T11:06:07;16.65;;;14.93;;
21519;SDS011;10921;53.614;9.882;2023-08-06T11:08:35;16.23;;;14.90;;
21519;SDS011;10921;53.614;9.882;2023-08-06T11:11:07;16.15;;;14.75;;
21519;SDS011;10921;53.614;9.882;2023-08-06T11:13:43;17.13;;;15.25;;
21519;SDS011;10921;53.614;9.882;2023-08-06T11:16:16;18.40;;;16.70;;
21519;SDS011;10921;53.614;9.882;2023-08-06T11:18:45;18.13;;;16.50;;
21519;SDS011;10921;53.614;9.882;2023-08-06T11:21:11;17.75;;;16.17;;
21519;SDS011;10921;53.614;9.882;2023-08-06T11:23:38;19.20;;;17.38;;
21519;SDS011;10921;53.614;9.882;2023-08-06T11:26:07;17.27;;;15.88;;
21519;SDS011;10921;53.614;9.882;2023-08-06T11:28:33;18.42;;;16.23;;
21519;SDS011;10921;53.614;9.882;2023-08-06T11:31:00;21.17;;;16.70;;
21519;SDS011;10921;53.614;9.882;2023-08-06T11:33:28;18.52;;;16.80;;
21519;SDS011;10921;53.614;9.882;2023-08-06T11:35:55;18.50;;;16.70;;
21519;SDS011;10921;53.614;9.882;2023-08-06T11:38:24;17.30;;;15.80;;
21519;SDS011;10921;53.614;9.882;2023-08-06T11:40:53;18.55;;;16.85;;
21519;SDS011;10921;53.614;9.882;2023-08-06T11:43:20;18.55;;;16.75;;
21519;SDS011;10921;53.614;9.882;2023-08-06T11:45:49;18.50;;;16.60;;
21519;SDS011;10921;53.614;9.882;2023-08-06T11:48:16;18.83;;;17.05;;
21519;SDS011;10921;53.614;9.882;2023-08-06T11:50:44;22.23;;;17.67;;
21519;SDS011;10921;53.614;9.882;2023-08-06T11:53:14;21.40;;;17.85;;
21519;SDS011;10921;53.614;9.882;2023-08-06T11:55:41;19.13;;;17.42;;
21519;SDS011;10921;53.614;9.882;2023-08-06T11:58:09;17.60;;;16.10;;
21519;SDS011;10921;53.614;9.882;2023-08-06T12:00:37;17.42;;;15.77;;
21519;SDS011;10921;53.614;9.882;2023-08-06T12:03:04;18.45;;;16.77;;
21519;SDS011;10921;53.614;9.882;2023-08-06T12:05:31;18.30;;;16.50;;
21519;SDS011;10921;53.614;9.882;2023-08-06T12:08:04;18.65;;;16.27;;
21519;SDS011;10921;53.614;9.882;2023-08-06T12:10:31;17.40;;;15.82;;
21519;SDS011;10921;53.614;9.882;2023-08-06T12:12:59;19.83;;;17.67;;
21519;SDS011;10921;53.614;9.882;2023-08-06T12:15:26;18.13;;;16.40;;
21519;SDS011;10921;53.614;9.882;2023-08-06T12:17:52;18.20;;;16.30;;
21519;SDS011;10921;53.614;9.882;2023-08-06T12:20:19;17.73;;;16.13;;
21519;SDS011;10921;53.614;9.882;2023-08-06T12:22:46;18.48;;;16.55;;
21519;SDS011;10921;53.614;9.882;2023-08-06T12:25:13;19.35;;;17.00;;
21519;SDS011;10921;53.614;9.882;2023-08-06T12:27:43;19.15;;;17.25;;
21519;SDS011;10921;53.614;9.882;2023-08-06T12:30:10;18.65;;;16.92;;
21519;SDS011;10921;53.614;9.882;2023-08-06T12:32:38;18.20;;;16.40;;
21519;SDS011;10921;53.614;9.882;2023-08-06T12:35:05;18.40;;;16.75;;
21519;SDS011;10921;53.614;9.882;2023-08-06T12:37:34;19.08;;;16.95;;
21519;SDS011;10921;53.614;9.882;2023-08-06T12:40:00;19.58;;;17.73;;
21519;SDS011;10921;53.614;9.882;2023-08-06T12:42:47;19.65;;;16.92;;
21519;SDS011;10921;53.614;9.882;2023-08-06T12:45:15;18.50;;;16.60;;
21519;SDS011;10921;53.614;9.882;2023-08-06T12:47:41;19.95;;;17.85;;
21519;SDS011;10921;53.614;9.882;2023-08-06T12:50:08;19.95;;;17.27;;
21519;SDS011;10921;53.614;9.882;2023-08-06T12:52:35;19.48;;;17.02;;
21519;SDS011;10921;53.614;9.882;2023-08-06T12:55:01;18.90;;;17.15;;
21519;SDS011;10921;53.614;9.882;2023-08-06T12:57:28;18.58;;;16.77;;
21519;SDS011;10921;53.614;9.882;2023-08-06T13:00:15;17.35;;;15.85;;
21519;SDS011;10921;53.614;9.882;2023-08-06T13:02:42;17.10;;;15.15;;
21519;SDS011;10921;53.614;9.882;2023-08-06T13:05:08;17.58;;;15.88;;
21519;SDS011;10921;53.614;9.882;2023-08-06T13:07:36;17.55;;;15.45;;
21519;SDS011;10921;53.614;9.882;2023-08-06T13:10:02;16.30;;;14.80;;
21519;SDS011;10921;53.614;9.882;2023-08-06T13:12:30;16.85;;;14.85;;
21519;SDS011;10921;53.614;9.882;2023-08-06T13:14:56;16.55;;;15.15;;
21519;SDS011;10921;53.614;9.882;2023-08-06T13:17:25;17.05;;;15.07;;
21519;SDS011;10921;53.614;9.882;2023-08-06T13:19:53;15.95;;;14.55;;
21519;SDS011;10921;53.614;9.882;2023-08-06T13:22:19;16.30;;;14.60;;
21519;SDS011;10921;53.614;9.882;2023-08-06T13:24:46;16.60;;;14.70;;
21519;SDS011;10921;53.614;9.882;2023-08-06T13:27:13;15.73;;;14.25;;
21519;SDS011;10921;53.614;9.882;2023-08-06T13:29:39;16.23;;;14.63;;
21519;SDS011;10921;53.614;9.882;2023-08-06T13:32:06;15.07;;;13.80;;
21519;SDS011;10921;53.614;9.882;2023-08-06T13:34:32;16.02;;;14.05;;
21519;SDS011;10921;53.614;9.882;2023-08-06T13:36:59;16.02;;;14.48;;
21519;SDS011;10921;53.614;9.882;2023-08-06T13:39:26;16.10;;;14.43;;
21519;SDS011;10921;53.614;9.882;2023-08-06T13:41:52;14.73;;;13.40;;
21519;SDS011;10921;53.614;9.882;2023-08-06T13:44:19;15.70;;;14.10;;
21519;SDS011;10921;53.614;9.882;2023-08-06T13:46:45;15.90;;;14.32;;
21519;SDS011;10921;53.614;9.882;2023-08-06T13:49:12;16.13;;;14.38;;
21519;SDS011;10921;53.614;9.882;2023-08-06T13:51:39;15.35;;;14.00;;
21519;SDS011;10921;53.614;9.882;2023-08-06T13:54:05;14.57;;;13.27;;
21519;SDS011;10921;53.614;9.882;2023-08-06T13:56:32;14.63;;;13.35;;
21519;SDS011;10921;53.614;9.882;2023-08-06T13:58:59;13.90;;;12.80;;
21519;SDS011;10921;53.614;9.882;2023-08-06T14:01:26;14.20;;;13.10;;
21519;SDS011;10921;53.614;9.882;2023-08-06T14:04:13;15.52;;;13.82;;
21519;SDS011;10921;53.614;9.882;2023-08-06T14:06:39;14.57;;;13.35;;
21519;SDS011;10921;53.614;9.882;2023-08-06T14:09:06;13.98;;;12.98;;
21519;SDS011;10921;53.614;9.882;2023-08-06T14:11:33;14.27;;;13.10;;
21519;SDS011;10921;53.614;9.882;2023-08-06T14:14:00;13.77;;;12.73;;
21519;SDS011;10921;53.614;9.882;2023-08-06T14:16:29;14.30;;;13.20;;
21519;SDS011;10921;53.614;9.882;2023-08-06T14:18:56;15.32;;;13.77;;
21519;SDS011;10921;53.614;9.882;2023-08-06T14:21:22;14.43;;;13.20;;
21519;SDS011;10921;53.614;9.882;2023-08-06T14:23:49;13.48;;;12.48;;
21519;SDS011;10921;53.614;9.882;2023-08-06T14:26:15;14.43;;;13.32;;
21519;SDS011;10921;53.614;9.882;2023-08-06T14:28:43;13.48;;;12.48;;
21519;SDS011;10921;53.614;9.882;2023-08-06T14:31:09;14.57;;;13.38;;
21519;SDS011;10921;53.614;9.882;2023-08-06T14:33:36;15.90;;;14.57;;